sensor_id;sensor_type;location;lat;lon;timestamp;temperature;humidity
53045;DHT22;38930;52.766;6.884;2024-03-23T00:54:05;7.00;99.90
53045;DHT22;38930;52.766;6.884;2024-03-23T00:56:31;7.00;99.90
53045;DHT22;38930;52.766;6.884;2024-03-23T00:58:56;7.00;99.90
53045;DHT22;38930;52.766;6.884;2024-03-23T01:01:22;7.00;99.90
53045;DHT22;38930;52.766;6.884;2024-03-23T01:03:47;7.00;99.90
53045;DHT22;38930;52.766;6.884;2024-03-23T01:06:13;6.90;99.90
53045;DHT22;38930;52.766;6.884;2024-03-23T01:08:38;7.70;99.90
53045;DHT22;38930;52.766;6.884;2024-03-23T01:11:04;6.90;99.90
53045;DHT22;38930;52.766;6.884;2024-03-23T01:13:29;6.70;99.90
53045;DHT22;38930;52.766;6.884;2024-03-23T01:15:56;7.00;99.90
53045;DHT22;38930;52.766;6.884;2024-03-23T01:18:22;6.90;99.90
53045;DHT22;38930;52.766;6.884;2024-03-23T01:20:48;6.90;99.90
53045;DHT22;38930;52.766;6.884;2024-03-23T01:23:14;6.80;99.90
53045;DHT22;38930;52.766;6.884;2024-03-23T01:25:40;6.90;99.90
53045;DHT22;38930;52.766;6.884;2024-03-23T01:28:06;6.90;99.90
53045;DHT22;38930;52.766;6.884;2024-03-23T01:30:33;6.90;99.90
53045;DHT22;38930;52.766;6.884;2024-03-23T01:32:58;6.80;99.90
53045;DHT22;38930;52.766;6.884;2024-03-23T01:35:24;6.80;99.90
53045;DHT22;38930;52.766;6.884;2024-03-23T01:37:50;6.80;99.90
53045;DHT22;38930;52.766;6.884;2024-03-23T01:40:19;7.30;99.90
53045;DHT22;38930;52.766;6.884;2024-03-23T01:42:55;6.70;99.90
53045;DHT22;38930;52.766;6.884;2024-03-23T01:45:21;6.50;99.90
53045;DHT22;38930;52.766;6.884;2024-03-23T01:47:46;6.70;99.90
53045;DHT22;38930;52.766;6.884;2024-03-23T01:50:13;6.70;99.90
53045;DHT22;38930;52.766;6.884;2024-03-23T01:52:39;6.70;99.90
53045;DHT22;38930;52.766;6.884;2024-03-23T01:55:05;6.70;99.90
53045;DHT22;38930;52.766;6.884;2024-03-23T01:57:30;6.70;99.90
53045;DHT22;38930;52.766;6.884;2024-03-23T01:59:56;7.30;99.90
53045;DHT22;38930;52.766;6.884;2024-03-23T02:02:22;6.60;99.90
53045;DHT22;38930;52.766;6.884;2024-03-23T02:04:47;6.50;99.90
53045;DHT22;38930;52.766;6.884;2024-03-23T02:07:13;6.50;99.90
53045;DHT22;38930;52.766;6.884;2024-03-23T02:09:39;6.50;99.90
53045;DHT22;38930;52.766;6.884;2024-03-23T02:12:05;6.40;99.90
53045;DHT22;38930;52.766;6.884;2024-03-23T02:14:30;6.40;99.90
53045;DHT22;38930;52.766;6.884;2024-03-23T02:16:57;6.30;99.90
53045;DHT22;38930;52.766;6.884;2024-03-23T02:19:23;6.30;99.90
53045;DHT22;38930;52.766;6.884;2024-03-23T02:21:49;6.30;99.90
53045;DHT22;38930;52.766;6.884;2024-03-23T02:24:15;6.20;99.90
53045;DHT22;38930;52.766;6.884;2024-03-23T02:26:40;5.60;99.90
53045;DHT22;38930;52.766;6.884;2024-03-23T02:29:06;6.10;99.90
53045;DHT22;38930;52.766;6.884;2024-03-23T02:31:32;6.10;99.90
53045;DHT22;38930;52.766;6.884;2024-03-23T02:33:57;6.00;99.90
53045;DHT22;38930;52.766;6.884;2024-03-23T02:36:23;6.00;99.90
53045;DHT22;38930;52.766;6.884;2024-03-23T02:38:49;5.90;99.90
53045;DHT22;38930;52.766;6.884;2024-03-23T02:41:14;5.90;99.90
53045;DHT22;38930;52.766;6.884;2024-03-23T02:43:40;5.90;99.90
53045;DHT22;38930;52.766;6.884;2024-03-23T02:46:05;5.80;99.90
53045;DHT22;38930;52.766;6.884;2024-03-23T02:48:31;5.70;99.90
53045;DHT22;38930;52.766;6.884;2024-03-23T02:50:57;5.70;99.90
53045;DHT22;38930;52.766;6.884;2024-03-23T02:53:22;5.70;99.90
53045;DHT22;38930;52.766;6.884;2024-03-23T02:55:48;5.60;99.90
53045;DHT22;38930;52.766;6.884;2024-03-23T02:58:14;5.60;99.90
53045;DHT22;38930;52.766;6.884;2024-03-23T03:00:41;5.50;99.90
53045;DHT22;38930;52.766;6.884;2024-03-23T03:03:06;5.50;99.90
53045;DHT22;38930;52.766;6.884;2024-03-23T03:05:32;5.40;99.90
53045;DHT22;38930;52.766;6.884;2024-03-23T03:07:58;5.40;99.90
53045;DHT22;38930;52.766;6.884;2024-03-23T03:10:23;5.40;99.90
53045;DHT22;38930;52.766;6.884;2024-03-23T03:12:49;5.40;99.90
53045;DHT22;38930;52.766;6.884;2024-03-23T03:15:15;5.30;99.90
53045;DHT22;38930;52.766;6.884;2024-03-23T03:17:40;5.30;99.90
53045;DHT22;38930;52.766;6.884;2024-03-23T03:20:06;5.30;99.90
53045;DHT22;38930;52.766;6.884;2024-03-23T03:22:32;5.30;99.90
53045;DHT22;38930;52.766;6.884;2024-03-23T03:24:57;5.20;99.90
53045;DHT22;38930;52.766;6.884;2024-03-23T03:27:23;5.20;99.90
53045;DHT22;38930;52.766;6.884;2024-03-23T03:29:49;5.20;99.90
53045;DHT22;38930;52.766;6.884;2024-03-23T03:32:15;5.20;99.90
53045;DHT22;38930;52.766;6.884;2024-03-23T03:34:40;5.10;99.90
53045;DHT22;38930;52.766;6.884;2024-03-23T03:37:06;5.10;99.90
53045;DHT22;38930;52.766;6.884;2024-03-23T03:39:32;5.10;99.90
53045;DHT22;38930;52.766;6.884;2024-03-23T03:41:57;5.10;99.90
53045;DHT22;38930;52.766;6.884;2024-03-23T03:44:23;5.00;99.90
53045;DHT22;38930;52.766;6.884;2024-03-23T03:46:48;5.10;99.90
53045;DHT22;38930;52.766;6.884;2024-03-23T03:49:14;5.00;99.90
53045;DHT22;38930;52.766;6.884;2024-03-23T03:51:39;5.00;99.90
53045;DHT22;38930;52.766;6.884;2024-03-23T03:54:05;5.90;99.90
53045;DHT22;38930;52.766;6.884;2024-03-23T03:56:31;4.80;99.90
53045;DHT22;38930;52.766;6.884;2024-03-23T03:58:57;4.90;99.90
53045;DHT22;38930;52.766;6.884;2024-03-23T04:01:22;4.90;99.90
53045;DHT22;38930;52.766;6.884;2024-03-23T04:03:48;4.80;99.90
53045;DHT22;38930;52.766;6.884;2024-03-23T04:06:19;4.80;99.90
53045;DHT22;38930;52.766;6.884;2024-03-23T04:08:45;4.70;99.90
53045;DHT22;38930;52.766;6.884;2024-03-23T04:11:10;4.70;99.90
53045;DHT22;38930;52.766;6.884;2024-03-23T04:13:36;4.70;99.90
53045;DHT22;38930;52.766;6.884;2024-03-23T04:16:01;4.60;99.90
53045;DHT22;38930;52.766;6.884;2024-03-23T04:18:27;4.60;99.90
53045;DHT22;38930;52.766;6.884;2024-03-23T04:20:53;4.60;99.90
53045;DHT22;38930;52.766;6.884;2024-03-23T04:23:21;4.50;99.90
53045;DHT22;38930;52.766;6.884;2024-03-23T04:25:47;4.50;99.90
53045;DHT22;38930;52.766;6.884;2024-03-23T04:28:12;4.70;99.90
53045;DHT22;38930;52.766;6.884;2024-03-23T04:30:38;4.50;99.90
53045;DHT22;38930;52.766;6.884;2024-03-23T04:33:04;4.50;99.90
53045;DHT22;38930;52.766;6.884;2024-03-23T04:35:30;4.40;99.90
53045;DHT22;38930;52.766;6.884;2024-03-23T04:37:56;4.40;99.90
53045;DHT22;38930;52.766;6.884;2024-03-23T04:40:24;4.40;99.90
53045;DHT22;38930;52.766;6.884;2024-03-23T04:42:49;4.40;99.90
53045;DHT22;38930;52.766;6.884;2024-03-23T04:45:15;4.30;99.90
53045;DHT22;38930;52.766;6.884;2024-03-23T04:47:41;4.30;99.90
53045;DHT22;38930;52.766;6.884;2024-03-23T04:50:06;4.30;99.90
53045;DHT22;38930;52.766;6.884;2024-03-23T04:52:32;4.30;99.90
53045;DHT22;38930;52.766;6.884;2024-03-23T04:54:58;5.10;99.90
53045;DHT22;38930;52.766;6.884;2024-03-23T04:57:23;4.30;99.90
53045;DHT22;38930;52.766;6.884;2024-03-23T04:59:49;4.30;99.90
53045;DHT22;38930;52.766;6.884;2024-03-23T05:02:15;4.30;99.90
53045;DHT22;38930;52.766;6.884;2024-03-23T05:04:41;4.20;99.90
53045;DHT22;38930;52.766;6.884;2024-03-23T05:07:06;4.20;99.90
53045;DHT22;38930;52.766;6.884;2024-03-23T05:09:32;4.20;99.90
53045;DHT22;38930;52.766;6.884;2024-03-23T05:11:59;4.20;99.90
53045;DHT22;38930;52.766;6.884;2024-03-23T05:14:26;4.20;99.90
53045;DHT22;38930;52.766;6.884;2024-03-23T05:16:52;4.10;99.90
53045;DHT22;38930;52.766;6.884;2024-03-23T05:19:18;4.10;99.90
53045;DHT22;38930;52.766;6.884;2024-03-23T05:21:43;4.10;99.90
53045;DHT22;38930;52.766;6.884;2024-03-23T05:24:09;4.10;99.90
53045;DHT22;38930;52.766;6.884;2024-03-23T05:26:35;4.10;99.90
53045;DHT22;38930;52.766;6.884;2024-03-23T05:29:01;4.10;99.90
53045;DHT22;38930;52.766;6.884;2024-03-23T05:31:29;4.10;99.90
53045;DHT22;38930;52.766;6.884;2024-03-23T05:33:55;4.10;99.90
53045;DHT22;38930;52.766;6.884;2024-03-23T05:36:21;4.10;99.90
53045;DHT22;38930;52.766;6.884;2024-03-23T05:38:47;4.00;99.90
53045;DHT22;38930;52.766;6.884;2024-03-23T05:41:13;4.00;99.90
53045;DHT22;38930;52.766;6.884;2024-03-23T05:43:39;4.00;99.90
53045;DHT22;38930;52.766;6.884;2024-03-23T05:46:05;4.00;99.90
53045;DHT22;38930;52.766;6.884;2024-03-23T05:48:31;4.00;99.90
53045;DHT22;38930;52.766;6.884;2024-03-23T05:50:57;4.00;99.90
53045;DHT22;38930;52.766;6.884;2024-03-23T05:53:23;4.00;99.90
53045;DHT22;38930;52.766;6.884;2024-03-23T05:55:49;4.00;99.90
53045;DHT22;38930;52.766;6.884;2024-03-23T05:58:16;3.90;99.90
53045;DHT22;38930;52.766;6.884;2024-03-23T06:00:42;3.90;99.90
53045;DHT22;38930;52.766;6.884;2024-03-23T06:03:08;3.90;99.90
53045;DHT22;38930;52.766;6.884;2024-03-23T06:05:35;3.90;99.90
53045;DHT22;38930;52.766;6.884;2024-03-23T06:08:01;4.00;99.90
53045;DHT22;38930;52.766;6.884;2024-03-23T06:10:27;4.00;99.90
53045;DHT22;38930;52.766;6.884;2024-03-23T06:12:53;4.00;99.90
53045;DHT22;38930;52.766;6.884;2024-03-23T06:15:19;4.00;99.90
53045;DHT22;38930;52.766;6.884;2024-03-23T06:17:45;3.70;99.90
53045;DHT22;38930;52.766;6.884;2024-03-23T06:20:11;4.00;99.90
53045;DHT22;38930;52.766;6.884;2024-03-23T06:22:36;4.10;99.90
53045;DHT22;38930;52.766;6.884;2024-03-23T06:25:03;4.10;99.90
53045;DHT22;38930;52.766;6.884;2024-03-23T06:27:28;4.20;99.90
53045;DHT22;38930;52.766;6.884;2024-03-23T06:29:54;4.20;99.90
53045;DHT22;38930;52.766;6.884;2024-03-23T06:32:20;4.20;99.90
53045;DHT22;38930;52.766;6.884;2024-03-23T06:34:46;4.30;99.90
53045;DHT22;38930;52.766;6.884;2024-03-23T06:37:12;4.30;99.90
53045;DHT22;38930;52.766;6.884;2024-03-23T06:39:38;4.30;99.90
53045;DHT22;38930;52.766;6.884;2024-03-23T06:42:04;4.40;99.90
53045;DHT22;38930;52.766;6.884;2024-03-23T06:44:30;4.50;99.90
53045;DHT22;38930;52.766;6.884;2024-03-23T06:46:56;4.50;99.90
53045;DHT22;38930;52.766;6.884;2024-03-23T06:49:25;4.70;99.90
53045;DHT22;38930;52.766;6.884;2024-03-23T06:51:51;4.80;99.90
53045;DHT22;38930;52.766;6.884;2024-03-23T06:54:17;5.00;99.90
53045;DHT22;38930;52.766;6.884;2024-03-23T06:56:44;5.00;99.90
53045;DHT22;38930;52.766;6.884;2024-03-23T06:59:09;5.00;99.90
53045;DHT22;38930;52.766;6.884;2024-03-23T07:01:35;5.10;99.90
53045;DHT22;38930;52.766;6.884;2024-03-23T07:04:00;5.10;99.90
53045;DHT22;38930;52.766;6.884;2024-03-23T07:06:26;5.20;99.90
53045;DHT22;38930;52.766;6.884;2024-03-23T07:08:54;5.20;99.90
53045;DHT22;38930;52.766;6.884;2024-03-23T07:11:21;5.20;99.90
53045;DHT22;38930;52.766;6.884;2024-03-23T07:13:50;5.20;99.90
53045;DHT22;38930;52.766;6.884;2024-03-23T07:16:16;5.30;99.90
53045;DHT22;38930;52.766;6.884;2024-03-23T07:18:41;5.40;99.90
53045;DHT22;38930;52.766;6.884;2024-03-23T07:21:07;5.40;99.90
53045;DHT22;38930;52.766;6.884;2024-03-23T07:23:33;5.40;99.90
53045;DHT22;38930;52.766;6.884;2024-03-23T07:26:03;5.40;99.90
53045;DHT22;38930;52.766;6.884;2024-03-23T07:28:33;5.40;99.90
53045;DHT22;38930;52.766;6.884;2024-03-23T07:31:06;5.50;99.90
53045;DHT22;38930;52.766;6.884;2024-03-23T07:33:34;5.60;99.90
53045;DHT22;38930;52.766;6.884;2024-03-23T07:36:00;6.40;99.90
53045;DHT22;38930;52.766;6.884;2024-03-23T07:38:29;6.20;99.90
53045;DHT22;38930;52.766;6.884;2024-03-23T07:43:33;6.00;99.90
53045;DHT22;38930;52.766;6.884;2024-03-23T07:45:59;6.10;99.90
53045;DHT22;38930;52.766;6.884;2024-03-23T07:48:25;6.10;99.90
53045;DHT22;38930;52.766;6.884;2024-03-23T07:51:08;6.10;99.90
53045;DHT22;38930;52.766;6.884;2024-03-23T07:53:35;6.20;99.90
53045;DHT22;38930;52.766;6.884;2024-03-23T07:56:05;6.30;99.90
53045;DHT22;38930;52.766;6.884;2024-03-23T07:58:32;6.30;99.90
53045;DHT22;38930;52.766;6.884;2024-03-23T08:01:07;6.40;99.90
53045;DHT22;38930;52.766;6.884;2024-03-23T08:03:34;6.60;99.90
53045;DHT22;38930;52.766;6.884;2024-03-23T08:06:17;6.90;99.90
53045;DHT22;38930;52.766;6.884;2024-03-23T08:08:44;7.00;99.90
53045;DHT22;38930;52.766;6.884;2024-03-23T08:11:13;7.50;99.90
53045;DHT22;38930;52.766;6.884;2024-03-23T08:13:40;6.90;99.90
53045;DHT22;38930;52.766;6.884;2024-03-23T08:16:07;6.80;99.90
53045;DHT22;38930;52.766;6.884;2024-03-23T08:18:34;7.30;99.90
53045;DHT22;38930;52.766;6.884;2024-03-23T08:21:04;6.80;99.90
53045;DHT22;38930;52.766;6.884;2024-03-23T08:23:31;6.50;99.90
53045;DHT22;38930;52.766;6.884;2024-03-23T08:26:00;6.30;99.90
53045;DHT22;38930;52.766;6.884;2024-03-23T08:28:26;6.30;99.90
53045;DHT22;38930;52.766;6.884;2024-03-23T08:30:53;6.20;99.90
53045;DHT22;38930;52.766;6.884;2024-03-23T08:33:19;6.20;99.90
53045;DHT22;38930;52.766;6.884;2024-03-23T08:35:54;6.30;99.90
53045;DHT22;38930;52.766;6.884;2024-03-23T08:38:20;6.80;99.90
53045;DHT22;38930;52.766;6.884;2024-03-23T08:40:46;6.30;99.90
53045;DHT22;38930;52.766;6.884;2024-03-23T08:43:11;6.40;99.90
53045;DHT22;38930;52.766;6.884;2024-03-23T08:45:37;6.50;99.90
53045;DHT22;38930;52.766;6.884;2024-03-23T08:48:03;6.60;99.90
53045;DHT22;38930;52.766;6.884;2024-03-23T08:50:28;6.60;99.90
53045;DHT22;38930;52.766;6.884;2024-03-23T08:52:54;6.70;99.90
53045;DHT22;38930;52.766;6.884;2024-03-23T08:55:20;6.80;99.90
53045;DHT22;38930;52.766;6.884;2024-03-23T08:57:45;6.90;99.90
53045;DHT22;38930;52.766;6.884;2024-03-23T09:00:11;7.90;99.90
53045;DHT22;38930;52.766;6.884;2024-03-23T09:02:37;7.10;99.90
53045;DHT22;38930;52.766;6.884;2024-03-23T09:05:03;7.50;99.90
53045;DHT22;38930;52.766;6.884;2024-03-23T09:07:30;7.10;99.90
53045;DHT22;38930;52.766;6.884;2024-03-23T09:09:56;7.70;99.90
53045;DHT22;38930;52.766;6.884;2024-03-23T09:12:21;7.10;99.90
53045;DHT22;38930;52.766;6.884;2024-03-23T09:14:47;7.10;99.90
53045;DHT22;38930;52.766;6.884;2024-03-23T09:17:13;7.10;99.90
53045;DHT22;38930;52.766;6.884;2024-03-23T09:19:38;7.10;99.90
53045;DHT22;38930;52.766;6.884;2024-03-23T09:22:05;7.80;99.90
53045;DHT22;38930;52.766;6.884;2024-03-23T09:24:30;7.20;99.90
53045;DHT22;38930;52.766;6.884;2024-03-23T09:26:57;7.80;99.90
53045;DHT22;38930;52.766;6.884;2024-03-23T09:29:23;7.20;99.90
53045;DHT22;38930;52.766;6.884;2024-03-23T09:31:48;7.40;99.90
53045;DHT22;38930;52.766;6.884;2024-03-23T09:34:14;7.50;99.90
53045;DHT22;38930;52.766;6.884;2024-03-23T09:36:40;8.40;99.90
53045;DHT22;38930;52.766;6.884;2024-03-23T09:39:07;8.00;99.90
53045;DHT22;38930;52.766;6.884;2024-03-23T09:41:35;7.90;99.90
53045;DHT22;38930;52.766;6.884;2024-03-23T09:44:00;8.10;99.90
53045;DHT22;38930;52.766;6.884;2024-03-23T09:46:26;8.10;99.90
53045;DHT22;38930;52.766;6.884;2024-03-23T09:48:55;8.50;99.90
53045;DHT22;38930;52.766;6.884;2024-03-23T09:51:21;8.40;99.90
53045;DHT22;38930;52.766;6.884;2024-03-23T09:53:49;8.50;99.90
53045;DHT22;38930;52.766;6.884;2024-03-23T09:56:15;8.50;99.90
53045;DHT22;38930;52.766;6.884;2024-03-23T09:58:42;8.70;99.90
53045;DHT22;38930;52.766;6.884;2024-03-23T10:01:09;8.80;99.90
53045;DHT22;38930;52.766;6.884;2024-03-23T10:03:46;8.90;99.90
53045;DHT22;38930;52.766;6.884;2024-03-23T10:06:12;8.90;99.90
53045;DHT22;38930;52.766;6.884;2024-03-23T10:08:38;8.90;99.90
53045;DHT22;38930;52.766;6.884;2024-03-23T10:11:16;9.00;99.90
53045;DHT22;38930;52.766;6.884;2024-03-23T10:13:43;9.00;99.90
53045;DHT22;38930;52.766;6.884;2024-03-23T10:16:09;9.10;99.90
53045;DHT22;38930;52.766;6.884;2024-03-23T10:18:41;9.20;99.90
53045;DHT22;38930;52.766;6.884;2024-03-23T10:21:08;9.20;99.90
53045;DHT22;38930;52.766;6.884;2024-03-23T10:23:37;9.00;99.90
53045;DHT22;38930;52.766;6.884;2024-03-23T10:26:24;9.00;99.90
53045;DHT22;38930;52.766;6.884;2024-03-23T10:28:59;9.00;99.90
53045;DHT22;38930;52.766;6.884;2024-03-23T10:31:34;9.10;99.90
53045;DHT22;38930;52.766;6.884;2024-03-23T10:34:02;9.10;99.90
53045;DHT22;38930;52.766;6.884;2024-03-23T10:36:30;8.90;99.90
53045;DHT22;38930;52.766;6.884;2024-03-23T10:38:56;8.70;99.90
53045;DHT22;38930;52.766;6.884;2024-03-23T10:41:27;9.30;99.90
53045;DHT22;38930;52.766;6.884;2024-03-23T10:43:53;8.80;99.90
53045;DHT22;38930;52.766;6.884;2024-03-23T10:46:21;8.80;99.90
53045;DHT22;38930;52.766;6.884;2024-03-23T10:48:47;9.00;99.90
53045;DHT22;38930;52.766;6.884;2024-03-23T10:51:14;9.00;99.90
53045;DHT22;38930;52.766;6.884;2024-03-23T10:53:39;9.10;99.90
53045;DHT22;38930;52.766;6.884;2024-03-23T10:56:06;9.80;99.90
53045;DHT22;38930;52.766;6.884;2024-03-23T10:58:36;9.30;99.90
53045;DHT22;38930;52.766;6.884;2024-03-23T11:01:03;10.10;99.90
53045;DHT22;38930;52.766;6.884;2024-03-23T11:03:35;9.50;99.90
53045;DHT22;38930;52.766;6.884;2024-03-23T11:06:05;9.50;99.90
53045;DHT22;38930;52.766;6.884;2024-03-23T11:08:40;9.30;99.90
53045;DHT22;38930;52.766;6.884;2024-03-23T11:11:18;9.30;99.90
53045;DHT22;38930;52.766;6.884;2024-03-23T11:13:48;9.20;99.90
53045;DHT22;38930;52.766;6.884;2024-03-23T11:18:39;9.20;99.90
53045;DHT22;38930;52.766;6.884;2024-03-23T11:21:07;9.10;99.90
53045;DHT22;38930;52.766;6.884;2024-03-23T11:23:32;9.90;99.90
53045;DHT22;38930;52.766;6.884;2024-03-23T11:25:58;9.30;99.90
53045;DHT22;38930;52.766;6.884;2024-03-23T11:28:24;9.20;99.90
53045;DHT22;38930;52.766;6.884;2024-03-23T11:30:49;9.10;99.90
53045;DHT22;38930;52.766;6.884;2024-03-23T11:33:15;9.00;99.90
53045;DHT22;38930;52.766;6.884;2024-03-23T11:35:41;8.90;99.90
53045;DHT22;38930;52.766;6.884;2024-03-23T11:40:44;8.50;99.90
53045;DHT22;38930;52.766;6.884;2024-03-23T11:43:13;8.10;99.90
53045;DHT22;38930;52.766;6.884;2024-03-23T11:45:43;7.80;99.90
53045;DHT22;38930;52.766;6.884;2024-03-23T11:48:14;7.50;99.90
53045;DHT22;38930;52.766;6.884;2024-03-23T11:50:41;7.30;99.90
53045;DHT22;38930;52.766;6.884;2024-03-23T11:53:24;7.10;99.90
53045;DHT22;38930;52.766;6.884;2024-03-23T11:55:55;7.10;99.90
53045;DHT22;38930;52.766;6.884;2024-03-23T11:58:22;7.40;99.90
53045;DHT22;38930;52.766;6.884;2024-03-23T12:00:55;6.70;99.90
53045;DHT22;38930;52.766;6.884;2024-03-23T12:03:21;7.30;99.90
53045;DHT22;38930;52.766;6.884;2024-03-23T12:05:55;7.10;99.90
53045;DHT22;38930;52.766;6.884;2024-03-23T12:08:25;6.60;99.90
53045;DHT22;38930;52.766;6.884;2024-03-23T12:11:05;6.70;99.90
53045;DHT22;38930;52.766;6.884;2024-03-23T12:13:31;6.50;99.90
53045;DHT22;38930;52.766;6.884;2024-03-23T12:16:12;6.50;99.90
53045;DHT22;38930;52.766;6.884;2024-03-23T12:18:44;6.50;99.90
53045;DHT22;38930;52.766;6.884;2024-03-23T12:21:10;6.60;99.90
53045;DHT22;38930;52.766;6.884;2024-03-23T12:23:38;6.60;99.90
53045;DHT22;38930;52.766;6.884;2024-03-23T12:26:04;6.80;99.90
53045;DHT22;38930;52.766;6.884;2024-03-23T12:28:29;6.30;99.90
53045;DHT22;38930;52.766;6.884;2024-03-23T12:30:55;6.30;99.90
53045;DHT22;38930;52.766;6.884;2024-03-23T12:33:21;6.90;99.90
53045;DHT22;38930;52.766;6.884;2024-03-23T12:35:50;6.10;99.90
53045;DHT22;38930;52.766;6.884;2024-03-23T12:38:16;6.10;99.90
53045;DHT22;38930;52.766;6.884;2024-03-23T12:40:52;6.20;99.90
53045;DHT22;38930;52.766;6.884;2024-03-23T12:43:18;6.20;99.90
53045;DHT22;38930;52.766;6.884;2024-03-23T12:45:47;6.30;99.90
53045;DHT22;38930;52.766;6.884;2024-03-23T12:48:13;6.30;99.90
53045;DHT22;38930;52.766;6.884;2024-03-23T12:50:38;6.30;99.90
53045;DHT22;38930;52.766;6.884;2024-03-23T12:53:04;6.40;99.90
53045;DHT22;38930;52.766;6.884;2024-03-23T12:55:30;6.40;99.90
53045;DHT22;38930;52.766;6.884;2024-03-23T12:57:55;6.50;99.90
53045;DHT22;38930;52.766;6.884;2024-03-23T13:00:22;6.60;99.90
53045;DHT22;38930;52.766;6.884;2024-03-23T13:02:47;6.70;99.90
53045;DHT22;38930;52.766;6.884;2024-03-23T13:05:13;6.80;99.90
53045;DHT22;38930;52.766;6.884;2024-03-23T13:07:39;6.80;99.90
53045;DHT22;38930;52.766;6.884;2024-03-23T13:10:07;7.00;99.90
53045;DHT22;38930;52.766;6.884;2024-03-23T13:12:34;8.10;99.90
53045;DHT22;38930;52.766;6.884;2024-03-23T13:15:00;7.30;99.90
53045;DHT22;38930;52.766;6.884;2024-03-23T13:17:26;7.50;99.90
53045;DHT22;38930;52.766;6.884;2024-03-23T13:19:55;7.50;99.90
53045;DHT22;38930;52.766;6.884;2024-03-23T13:22:21;7.60;99.90
53045;DHT22;38930;52.766;6.884;2024-03-23T13:24:47;7.60;99.90
53045;DHT22;38930;52.766;6.884;2024-03-23T13:27:13;8.20;99.90
53045;DHT22;38930;52.766;6.884;2024-03-23T13:29:38;7.60;99.90
53045;DHT22;38930;52.766;6.884;2024-03-23T13:32:04;7.60;99.90
53045;DHT22;38930;52.766;6.884;2024-03-23T13:34:30;7.60;99.90
53045;DHT22;38930;52.766;6.884;2024-03-23T13:36:56;8.00;99.90
53045;DHT22;38930;52.766;6.884;2024-03-23T13:39:27;7.50;99.90
53045;DHT22;38930;52.766;6.884;2024-03-23T13:41:53;7.50;99.90
53045;DHT22;38930;52.766;6.884;2024-03-23T13:44:19;7.60;99.90
53045;DHT22;38930;52.766;6.884;2024-03-23T13:46:44;7.50;99.90
53045;DHT22;38930;52.766;6.884;2024-03-23T13:49:27;8.50;99.90
53045;DHT22;38930;52.766;6.884;2024-03-23T13:51:57;7.60;99.90
53045;DHT22;38930;52.766;6.884;2024-03-23T13:54:24;7.70;99.90
53045;DHT22;38930;52.766;6.884;2024-03-23T13:56:53;8.30;99.90
53045;DHT22;38930;52.766;6.884;2024-03-23T13:59:18;7.90;99.90
53045;DHT22;38930;52.766;6.884;2024-03-23T14:01:45;8.00;99.90
53045;DHT22;38930;52.766;6.884;2024-03-23T14:04:11;8.10;99.90
53045;DHT22;38930;52.766;6.884;2024-03-23T14:06:37;8.20;99.90
53045;DHT22;38930;52.766;6.884;2024-03-23T14:09:03;8.20;99.90
53045;DHT22;38930;52.766;6.884;2024-03-23T14:11:29;8.20;99.90
53045;DHT22;38930;52.766;6.884;2024-03-23T14:13:55;8.30;99.90
53045;DHT22;38930;52.766;6.884;2024-03-23T14:16:20;8.40;99.90
53045;DHT22;38930;52.766;6.884;2024-03-23T14:18:47;8.30;99.90
53045;DHT22;38930;52.766;6.884;2024-03-23T14:21:12;8.10;99.90
53045;DHT22;38930;52.766;6.884;2024-03-23T14:23:38;8.00;99.90
53045;DHT22;38930;52.766;6.884;2024-03-23T14:26:06;7.90;99.90
53045;DHT22;38930;52.766;6.884;2024-03-23T14:28:32;8.00;99.90
53045;DHT22;38930;52.766;6.884;2024-03-23T14:30:57;8.20;99.90
53045;DHT22;38930;52.766;6.884;2024-03-23T14:33:24;8.30;99.90
53045;DHT22;38930;52.766;6.884;2024-03-23T14:35:56;8.30;99.90
53045;DHT22;38930;52.766;6.884;2024-03-23T14:38:25;8.30;99.90
53045;DHT22;38930;52.766;6.884;2024-03-23T14:40:50;8.40;99.90
53045;DHT22;38930;52.766;6.884;2024-03-23T14:43:19;8.60;99.90
53045;DHT22;38930;52.766;6.884;2024-03-23T14:46:09;8.40;99.90
53045;DHT22;38930;52.766;6.884;2024-03-23T14:48:36;8.20;99.90
53045;DHT22;38930;52.766;6.884;2024-03-23T14:51:02;8.10;99.90
53045;DHT22;38930;52.766;6.884;2024-03-23T14:53:44;8.00;99.90
53045;DHT22;38930;52.766;6.884;2024-03-23T14:56:10;7.80;99.90
53045;DHT22;38930;52.766;6.884;2024-03-23T14:58:38;7.80;99.90
53045;DHT22;38930;52.766;6.884;2024-03-23T15:01:05;7.70;99.90
53045;DHT22;38930;52.766;6.884;2024-03-23T15:03:34;7.70;99.90
53045;DHT22;38930;52.766;6.884;2024-03-23T15:06:00;7.90;99.90
53045;DHT22;38930;52.766;6.884;2024-03-23T15:08:27;8.30;99.90
53045;DHT22;38930;52.766;6.884;2024-03-23T15:10:58;8.60;99.90
53045;DHT22;38930;52.766;6.884;2024-03-23T15:13:24;8.30;99.90
53045;DHT22;38930;52.766;6.884;2024-03-23T15:15:50;8.40;99.90
53045;DHT22;38930;52.766;6.884;2024-03-23T15:18:17;8.50;99.90
53045;DHT22;38930;52.766;6.884;2024-03-23T15:20:58;8.60;99.90
53045;DHT22;38930;52.766;6.884;2024-03-23T15:23:28;8.70;99.90
53045;DHT22;38930;52.766;6.884;2024-03-23T15:25:58;8.80;99.90
53045;DHT22;38930;52.766;6.884;2024-03-23T15:28:24;9.10;99.90
53045;DHT22;38930;52.766;6.884;2024-03-23T15:30:52;9.00;99.90
53045;DHT22;38930;52.766;6.884;2024-03-23T15:33:18;9.40;99.90
53045;DHT22;38930;52.766;6.884;2024-03-23T15:35:43;9.10;99.90
53045;DHT22;38930;52.766;6.884;2024-03-23T15:38:09;9.00;99.90
53045;DHT22;38930;52.766;6.884;2024-03-23T15:40:35;8.80;99.90
53045;DHT22;38930;52.766;6.884;2024-03-23T15:43:01;8.80;99.90
53045;DHT22;38930;52.766;6.884;2024-03-23T15:45:26;8.70;99.90
53045;DHT22;38930;52.766;6.884;2024-03-23T15:47:52;8.90;99.90
53045;DHT22;38930;52.766;6.884;2024-03-23T15:50:18;8.60;99.90
53045;DHT22;38930;52.766;6.884;2024-03-23T15:52:43;8.50;99.90
53045;DHT22;38930;52.766;6.884;2024-03-23T15:55:09;8.50;99.90
53045;DHT22;38930;52.766;6.884;2024-03-23T15:57:36;8.90;99.90
53045;DHT22;38930;52.766;6.884;2024-03-23T16:00:03;9.20;99.90
53045;DHT22;38930;52.766;6.884;2024-03-23T16:02:28;8.30;99.90
53045;DHT22;38930;52.766;6.884;2024-03-23T16:04:54;8.20;99.90
53045;DHT22;38930;52.766;6.884;2024-03-23T16:07:20;8.20;99.90
53045;DHT22;38930;52.766;6.884;2024-03-23T16:09:46;8.10;99.90
53045;DHT22;38930;52.766;6.884;2024-03-23T16:12:12;8.00;99.90
53045;DHT22;38930;52.766;6.884;2024-03-23T16:14:37;8.00;99.90
53045;DHT22;38930;52.766;6.884;2024-03-23T16:17:03;7.90;99.90
53045;DHT22;38930;52.766;6.884;2024-03-23T16:19:28;8.40;99.90
53045;DHT22;38930;52.766;6.884;2024-03-23T16:21:54;7.80;99.90
53045;DHT22;38930;52.766;6.884;2024-03-23T16:24:21;7.80;99.90
53045;DHT22;38930;52.766;6.884;2024-03-23T16:26:46;7.60;99.90
53045;DHT22;38930;52.766;6.884;2024-03-23T16:29:12;7.50;99.90
53045;DHT22;38930;52.766;6.884;2024-03-23T16:31:38;7.50;99.90
53045;DHT22;38930;52.766;6.884;2024-03-23T16:34:03;7.40;99.90
53045;DHT22;38930;52.766;6.884;2024-03-23T16:36:29;7.30;99.90
53045;DHT22;38930;52.766;6.884;2024-03-23T16:38:55;7.30;99.90
53045;DHT22;38930;52.766;6.884;2024-03-23T16:41:21;7.40;99.90
53045;DHT22;38930;52.766;6.884;2024-03-23T16:43:46;7.30;99.90